createdAt,value
2022-07-27T00:01:26.327Z,3.80
2022-07-27T00:03:53.192Z,3.50
2022-07-27T00:06:19.965Z,3.30
2022-07-27T00:08:46.702Z,4.10
2022-07-27T00:11:13.466Z,3.10
2022-07-27T00:13:40.873Z,3.80
2022-07-27T00:16:07.715Z,3.20
2022-07-27T00:18:34.478Z,4.00
2022-07-27T00:21:01.230Z,3.00
2022-07-27T00:23:27.954Z,3.90
2022-07-27T00:25:54.789Z,3.60
2022-07-27T00:28:21.557Z,3.60
2022-07-27T00:30:48.291Z,3.30
2022-07-27T00:33:17.264Z,3.40
2022-07-27T00:35:44.627Z,3.40
2022-07-27T00:38:11.638Z,3.00
2022-07-27T00:40:38.372Z,3.40
2022-07-27T00:43:05.100Z,3.20
2022-07-27T00:45:31.934Z,3.60
2022-07-27T00:47:58.747Z,3.50
2022-07-27T00:50:25.727Z,3.30
2022-07-27T00:52:52.534Z,3.40
2022-07-27T00:55:19.310Z,3.60
2022-07-27T00:57:58.297Z,3.20
2022-07-27T01:00:28.881Z,3.70
2022-07-27T01:02:57.409Z,3.20
2022-07-27T01:05:35.893Z,3.60
2022-07-27T01:08:04.909Z,3.60
2022-07-27T01:10:31.627Z,3.70
2022-07-27T01:12:58.338Z,3.30
2022-07-27T01:15:25.244Z,3.40
2022-07-27T01:17:51.966Z,3.20
2022-07-27T01:20:18.779Z,3.60
2022-07-27T01:22:45.521Z,3.70
2022-07-27T01:25:12.278Z,3.20
2022-07-27T01:27:38.966Z,3.40
2022-07-27T01:30:26.246Z,3.10
2022-07-27T01:33:13.205Z,4.40
2022-07-27T01:35:39.981Z,3.50
2022-07-27T01:38:08.292Z,2.90
2022-07-27T01:40:36.911Z,3.30
2022-07-27T01:43:05.245Z,2.90
2022-07-27T01:45:32.169Z,3.80
2022-07-27T01:47:58.935Z,2.90
2022-07-27T01:50:25.745Z,2.90
2022-07-27T01:52:52.545Z,3.10
2022-07-27T01:55:19.339Z,3.40
2022-07-27T01:57:46.070Z,3.00
2022-07-27T02:00:13.727Z,3.10
2022-07-27T02:02:40.626Z,3.50
2022-07-27T02:05:09.380Z,3.20
2022-07-27T02:07:36.203Z,2.80
2022-07-27T02:10:03.628Z,2.90
2022-07-27T02:12:36.561Z,2.80
2022-07-27T02:15:14.756Z,3.00
2022-07-27T02:17:45.771Z,2.80
2022-07-27T02:20:13.662Z,2.90
2022-07-27T02:22:40.402Z,2.70
2022-07-27T02:25:07.716Z,3.30
2022-07-27T02:27:34.551Z,2.80
2022-07-27T02:30:01.558Z,2.80
2022-07-27T02:32:28.324Z,2.80
2022-07-27T02:34:55.187Z,2.80
2022-07-27T02:37:21.996Z,3.10
2022-07-27T02:39:49.130Z,2.50
2022-07-27T02:42:15.901Z,3.20
2022-07-27T02:44:42.693Z,3.20
2022-07-27T02:47:09.448Z,3.40
2022-07-27T02:49:36.321Z,3.60
2022-07-27T02:52:03.516Z,2.90
2022-07-27T02:54:32.471Z,2.90
2022-07-27T02:57:02.885Z,3.20
2022-07-27T02:59:29.746Z,3.20
2022-07-27T03:01:56.698Z,3.10
2022-07-27T03:04:23.605Z,3.80
2022-07-27T03:06:50.646Z,3.20
2022-07-27T03:09:17.444Z,2.90
2022-07-27T03:11:44.161Z,3.30
2022-07-27T03:14:11.149Z,3.10
2022-07-27T03:16:37.979Z,3.60
2022-07-27T03:19:05.544Z,3.30
2022-07-27T03:21:32.315Z,2.90
2022-07-27T03:23:59.033Z,3.50
2022-07-27T03:26:25.843Z,3.10
2022-07-27T03:28:52.563Z,3.10
2022-07-27T03:31:19.339Z,3.50
2022-07-27T03:33:46.179Z,3.50
2022-07-27T03:36:12.925Z,3.80
2022-07-27T03:38:39.664Z,3.80
2022-07-27T03:41:06.947Z,3.90
2022-07-27T03:43:33.884Z,3.80
2022-07-27T03:46:00.760Z,3.70
2022-07-27T03:48:27.563Z,3.90
2022-07-27T03:50:54.333Z,4.20
2022-07-27T03:53:21.594Z,5.30
2022-07-27T03:55:49.108Z,4.20
2022-07-27T03:58:17.029Z,4.80
2022-07-27T04:00:46.826Z,3.80
2022-07-27T04:03:13.560Z,4.00
2022-07-27T04:05:40.315Z,4.20
2022-07-27T04:08:07.155Z,3.80
2022-07-27T04:10:33.890Z,4.40
2022-07-27T04:13:01.149Z,4.10
2022-07-27T04:15:30.293Z,3.90
2022-07-27T04:17:57.754Z,4.10
2022-07-27T04:20:25.365Z,4.50
2022-07-27T04:22:52.400Z,3.90
2022-07-27T04:25:19.170Z,4.10
2022-07-27T04:27:45.953Z,4.20
2022-07-27T04:30:13.087Z,3.80
2022-07-27T04:32:39.908Z,4.20
2022-07-27T04:35:07.412Z,4.00
2022-07-27T04:37:35.008Z,3.90
2022-07-27T04:40:01.819Z,4.00
2022-07-27T04:42:29.986Z,3.50
2022-07-27T04:44:57.329Z,3.50
2022-07-27T04:47:24.106Z,3.90
2022-07-27T04:49:50.997Z,3.60
2022-07-27T04:52:17.803Z,3.50
2022-07-27T04:54:45.494Z,3.80
2022-07-27T04:57:12.242Z,3.20
2022-07-27T04:59:39.023Z,3.30
2022-07-27T05:02:05.814Z,2.70
2022-07-27T05:04:32.623Z,2.80
2022-07-27T05:06:59.520Z,2.50
2022-07-27T05:09:26.281Z,3.10
2022-07-27T05:11:53.337Z,2.90
2022-07-27T05:14:21.307Z,2.50
2022-07-27T05:16:49.453Z,2.50
2022-07-27T05:19:16.388Z,2.70
2022-07-27T05:21:43.445Z,2.70
2022-07-27T05:24:10.336Z,2.30
2022-07-27T05:26:37.767Z,2.40
2022-07-27T05:29:04.625Z,2.60
2022-07-27T05:31:31.463Z,2.20
2022-07-27T05:33:58.826Z,2.60
2022-07-27T05:36:26.298Z,2.50
2022-07-27T05:38:53.090Z,2.60
2022-07-27T05:41:24.719Z,2.50
2022-07-27T05:43:51.645Z,2.50
2022-07-27T05:46:18.442Z,2.50
2022-07-27T05:48:45.473Z,2.40
2022-07-27T05:51:12.268Z,2.50
2022-07-27T05:53:39.086Z,2.30
2022-07-27T05:56:07.894Z,2.30
2022-07-27T05:58:34.763Z,2.50
2022-07-27T06:01:01.667Z,2.40
2022-07-27T06:03:28.560Z,2.50
2022-07-27T06:06:15.341Z,2.30
2022-07-27T06:08:42.120Z,2.40
2022-07-27T06:11:27.448Z,2.40
2022-07-27T06:13:55.957Z,1.90
2022-07-27T06:16:23.577Z,2.30
2022-07-27T06:18:50.480Z,2.10
2022-07-27T06:21:17.276Z,2.30
2022-07-27T06:23:44.131Z,2.10
2022-07-27T06:26:10.898Z,2.00
2022-07-27T06:28:37.648Z,1.90
2022-07-27T06:31:04.529Z,2.20
2022-07-27T06:33:33.555Z,2.20
2022-07-27T06:36:01.586Z,2.30
2022-07-27T06:38:28.629Z,2.40
2022-07-27T06:40:55.726Z,2.00
2022-07-27T06:43:23.426Z,2.30
2022-07-27T06:45:50.187Z,2.10
2022-07-27T06:48:17.259Z,2.20
2022-07-27T06:50:44.181Z,2.10
2022-07-27T06:53:10.947Z,2.20
2022-07-27T06:55:37.690Z,2.80
2022-07-27T06:58:04.511Z,2.30
2022-07-27T07:00:31.616Z,2.20
2022-07-27T07:03:03.736Z,2.40
2022-07-27T07:05:30.950Z,3.30
2022-07-27T07:07:57.825Z,2.50
2022-07-27T07:10:25.143Z,3.00
2022-07-27T07:12:56.115Z,2.40
2022-07-27T07:15:26.527Z,2.50
2022-07-27T07:17:54.341Z,2.40
2022-07-27T07:20:21.283Z,2.70
2022-07-27T07:22:48.059Z,3.20
2022-07-27T07:25:14.874Z,3.10
2022-07-27T07:27:41.860Z,2.50
2022-07-27T07:30:08.993Z,2.40
2022-07-27T07:32:35.735Z,2.80
2022-07-27T07:35:04.155Z,2.80
2022-07-27T07:37:33.898Z,2.50
2022-07-27T07:40:25.308Z,3.10
2022-07-27T07:42:49.963Z,2.30
2022-07-27T07:45:16.784Z,2.80
2022-07-27T07:47:43.878Z,2.30
2022-07-27T07:50:10.645Z,2.30
2022-07-27T07:52:37.382Z,2.40
2022-07-27T07:55:04.727Z,2.70
2022-07-27T07:57:31.511Z,3.10
2022-07-27T07:59:58.248Z,2.60
2022-07-27T08:02:25.032Z,2.40
2022-07-27T08:04:54.452Z,4.40
2022-07-27T08:07:21.260Z,7.50
2022-07-27T08:09:48.042Z,4.10
2022-07-27T08:12:14.809Z,2.80
2022-07-27T08:14:41.552Z,2.90
2022-07-27T08:17:08.415Z,2.60
2022-07-27T08:19:39.859Z,2.60
2022-07-27T08:22:07.029Z,2.90
2022-07-27T08:24:33.868Z,2.80
2022-07-27T08:27:00.673Z,2.60
2022-07-27T08:29:36.686Z,2.60
2022-07-27T08:32:05.941Z,2.50
2022-07-27T08:34:33.006Z,2.30
2022-07-27T08:36:59.730Z,2.10
2022-07-27T08:40:19.967Z,2.40
2022-07-27T08:42:13.276Z,2.60
2022-07-27T08:44:41.157Z,2.60
2022-07-27T08:47:11.001Z,2.60
2022-07-27T08:49:44.022Z,2.00
2022-07-27T08:52:11.385Z,2.40
2022-07-27T08:54:39.438Z,2.50
2022-07-27T08:57:10.199Z,2.10
2022-07-27T08:59:37.077Z,2.30
2022-07-27T09:02:10.760Z,2.20
2022-07-27T09:04:42.051Z,2.30
2022-07-27T09:07:08.803Z,2.40
2022-07-27T09:09:46.091Z,2.50
2022-07-27T09:12:12.895Z,4.00
2022-07-27T09:14:40.866Z,2.30
2022-07-27T09:20:19.625Z,2.40
2022-07-27T09:22:56.272Z,2.60
2022-07-27T09:28:10.776Z,2.00
2022-07-27T09:30:44.048Z,3.00
2022-07-27T09:33:11.094Z,2.50
2022-07-27T09:35:38.021Z,2.20
2022-07-27T09:38:24.436Z,2.50
2022-07-27T09:41:01.577Z,2.30
2022-07-27T09:44:28.443Z,2.50
2022-07-27T09:49:28.755Z,2.20
2022-07-27T09:54:27.879Z,2.40
2022-07-27T09:57:01.579Z,2.50
2022-07-27T09:59:29.040Z,2.50
2022-07-27T10:01:56.398Z,2.30
2022-07-27T10:04:23.803Z,2.20
2022-07-27T10:07:10.623Z,2.10
2022-07-27T10:09:37.552Z,2.30
2022-07-27T10:12:04.764Z,2.60
2022-07-27T10:14:32.783Z,2.20
2022-07-27T10:16:59.550Z,2.00
2022-07-27T10:19:30.688Z,2.00
2022-07-27T10:21:57.570Z,2.50
2022-07-27T10:24:33.787Z,2.70
2022-07-27T10:27:29.446Z,2.10
2022-07-27T10:29:56.635Z,2.20
2022-07-27T10:32:28.813Z,2.60
2022-07-27T10:34:55.568Z,2.00
2022-07-27T10:37:29.041Z,2.00
2022-07-27T10:40:16.724Z,2.20
2022-07-27T10:42:46.076Z,1.90
2022-07-27T10:45:16.121Z,2.50
2022-07-27T10:47:47.513Z,2.00
2022-07-27T10:50:17.393Z,2.10
2022-07-27T10:52:44.843Z,2.30
2022-07-27T10:55:30.427Z,1.90
2022-07-27T10:58:03.442Z,2.20
2022-07-27T11:00:54.190Z,2.10
2022-07-27T11:03:30.866Z,2.50
2022-07-27T11:06:01.290Z,2.50
2022-07-27T11:08:46.949Z,2.50
2022-07-27T11:11:16.102Z,2.50
2022-07-27T11:13:42.915Z,2.70
2022-07-27T11:16:26.214Z,2.20
2022-07-27T11:18:55.233Z,2.10
2022-07-27T11:21:30.370Z,2.40
2022-07-27T11:24:03.872Z,2.70
2022-07-27T11:26:37.425Z,2.90
2022-07-27T11:29:07.286Z,3.10
2022-07-27T11:34:42.062Z,2.30
2022-07-27T11:40:00.359Z,2.50
2022-07-27T11:42:37.180Z,2.10
2022-07-27T11:45:05.214Z,2.40
2022-07-27T11:47:34.102Z,2.70
2022-07-27T11:50:08.611Z,2.70
2022-07-27T11:52:35.557Z,3.10
2022-07-27T11:55:02.765Z,3.20
2022-07-27T11:57:33.001Z,2.60
2022-07-27T11:59:59.809Z,2.80
2022-07-27T12:02:27.417Z,2.50
2022-07-27T12:04:57.886Z,2.20
2022-07-27T12:07:30.469Z,2.60
2022-07-27T12:09:59.839Z,2.40
2022-07-27T12:12:33.557Z,2.70
2022-07-27T12:15:16.684Z,2.10
2022-07-27T12:17:57.355Z,2.00
2022-07-27T12:20:26.476Z,2.60
2022-07-27T12:22:54.005Z,2.60
2022-07-27T12:25:21.328Z,2.40
2022-07-27T12:28:07.408Z,2.20
2022-07-27T12:30:47.911Z,2.10
2022-07-27T12:33:37.223Z,1.70
2022-07-27T12:36:05.666Z,2.40
2022-07-27T12:38:39.536Z,2.40
2022-07-27T12:41:06.346Z,2.30
2022-07-27T12:43:33.140Z,2.20
2022-07-27T12:46:00.717Z,2.10
2022-07-27T12:48:28.872Z,2.30
2022-07-27T12:51:03.631Z,2.70
2022-07-27T12:53:30.903Z,3.00
2022-07-27T12:55:59.049Z,2.50
2022-07-27T12:58:25.812Z,2.50
2022-07-27T13:00:52.645Z,2.70
2022-07-27T13:03:19.416Z,3.50
2022-07-27T13:05:46.233Z,2.50
2022-07-27T13:08:13.504Z,2.60
2022-07-27T13:10:44.667Z,2.70
2022-07-27T13:13:11.680Z,2.40
2022-07-27T13:15:38.464Z,2.60
2022-07-27T13:18:05.334Z,2.50
2022-07-27T13:20:32.337Z,3.10
2022-07-27T13:22:59.203Z,3.10
2022-07-27T13:25:25.996Z,2.50
2022-07-27T13:27:52.860Z,2.80
2022-07-27T13:30:19.731Z,3.40
2022-07-27T13:32:47.097Z,3.50
2022-07-27T13:35:14.448Z,3.70
2022-07-27T13:37:41.316Z,3.80
2022-07-27T13:40:09.171Z,4.00
2022-07-27T13:42:36.057Z,3.10
2022-07-27T13:45:09.339Z,3.30
2022-07-27T13:47:37.061Z,5.10
2022-07-27T13:50:04.565Z,12.70
2022-07-27T13:52:31.327Z,4.70
2022-07-27T13:54:58.132Z,2.80
2022-07-27T13:57:24.889Z,2.30
2022-07-27T13:59:51.687Z,5.40
2022-07-27T14:02:20.649Z,8.60
2022-07-27T14:04:50.168Z,10.10
2022-07-27T14:07:17.116Z,5.40
2022-07-27T14:10:02.743Z,3.90
2022-07-27T14:12:29.706Z,4.00
2022-07-27T14:14:56.477Z,4.60
2022-07-27T14:17:23.635Z,3.80
2022-07-27T14:19:50.388Z,3.40
2022-07-27T14:22:17.262Z,4.20
2022-07-27T14:24:44.154Z,4.10
2022-07-27T14:27:10.952Z,3.80
2022-07-27T14:29:37.729Z,2.60
2022-07-27T14:32:04.717Z,2.90
2022-07-27T14:34:31.609Z,3.50
2022-07-27T14:36:58.387Z,3.20
2022-07-27T14:39:25.201Z,2.90
2022-07-27T14:41:51.934Z,3.70
2022-07-27T14:44:19.178Z,2.40
2022-07-27T14:46:46.479Z,3.00
2022-07-27T14:49:14.991Z,3.20
2022-07-27T14:51:41.822Z,3.10
2022-07-27T14:54:08.681Z,3.30
2022-07-27T14:56:36.634Z,3.30
2022-07-27T14:59:04.143Z,3.20
2022-07-27T15:01:30.953Z,3.00
2022-07-27T15:03:57.801Z,3.10
2022-07-27T15:06:24.587Z,3.50
2022-07-27T15:08:51.340Z,3.30
2022-07-27T15:11:18.046Z,3.40
2022-07-27T15:13:44.781Z,3.10
2022-07-27T15:16:12.081Z,3.40
2022-07-27T15:18:39.113Z,3.30
2022-07-27T15:21:13.580Z,3.20
2022-07-27T15:23:42.807Z,2.80
2022-07-27T15:26:09.772Z,3.40
2022-07-27T15:28:36.600Z,3.50
2022-07-27T15:31:03.675Z,4.00
2022-07-27T15:33:30.646Z,3.70
2022-07-27T15:35:57.414Z,3.40
2022-07-27T15:38:24.186Z,3.80
2022-07-27T15:40:50.946Z,3.40
2022-07-27T15:43:17.810Z,3.30
2022-07-27T15:45:51.852Z,3.40
2022-07-27T15:48:19.777Z,3.80
2022-07-27T15:50:48.769Z,3.80
2022-07-27T15:53:15.711Z,3.90
2022-07-27T15:55:43.174Z,3.30
2022-07-27T15:58:09.965Z,3.40
2022-07-27T16:00:40.736Z,3.60
2022-07-27T16:03:12.119Z,3.60
2022-07-27T16:05:39.711Z,3.10
2022-07-27T16:08:09.159Z,3.80
2022-07-27T16:10:37.263Z,3.30
2022-07-27T16:13:05.594Z,4.20
2022-07-27T16:15:51.572Z,4.00
2022-07-27T16:18:18.422Z,3.50
2022-07-27T16:20:45.169Z,3.50
2022-07-27T16:23:18.659Z,2.70
2022-07-27T16:28:31.772Z,3.30
2022-07-27T16:30:58.622Z,3.20
2022-07-27T16:33:25.483Z,3.20
2022-07-27T16:35:52.236Z,3.50
2022-07-27T16:38:18.989Z,3.10
2022-07-27T16:40:45.759Z,3.10
2022-07-27T16:43:12.540Z,3.10
2022-07-27T16:45:39.288Z,3.50
2022-07-27T16:48:06.366Z,3.00
2022-07-27T16:50:33.139Z,3.00
2022-07-27T16:53:01.433Z,3.70
2022-07-27T16:55:28.457Z,3.10
2022-07-27T16:57:56.001Z,3.10
2022-07-27T17:00:22.933Z,3.40
2022-07-27T17:02:50.126Z,3.90
2022-07-27T17:05:16.975Z,3.40
2022-07-27T17:07:43.870Z,3.30
2022-07-27T17:10:10.770Z,3.40
2022-07-27T17:12:39.033Z,3.80
2022-07-27T17:15:07.364Z,3.50
2022-07-27T17:17:34.558Z,3.70
2022-07-27T17:20:01.425Z,3.40
2022-07-27T17:22:28.239Z,3.10
2022-07-27T17:24:55.000Z,3.30
2022-07-27T17:27:22.083Z,3.60
2022-07-27T17:29:48.975Z,3.20
2022-07-27T17:32:15.876Z,3.50
2022-07-27T17:34:43.528Z,3.30
2022-07-27T17:37:10.370Z,3.70
2022-07-27T17:39:37.172Z,3.30
2022-07-27T17:42:04.501Z,3.90
2022-07-27T17:44:32.361Z,3.60
2022-07-27T17:47:01.112Z,3.90
2022-07-27T17:49:28.445Z,4.00
2022-07-27T17:51:55.516Z,3.90
2022-07-27T17:54:23.727Z,4.20
2022-07-27T17:56:50.557Z,3.80
2022-07-27T18:02:05.068Z,3.90
2022-07-27T18:04:37.079Z,4.10
2022-07-27T18:07:05.826Z,4.10
2022-07-27T18:09:33.528Z,4.00
2022-07-27T18:12:00.627Z,3.90
2022-07-27T18:14:27.607Z,3.90
2022-07-27T18:16:54.527Z,3.80
2022-07-27T18:19:21.248Z,4.30
2022-07-27T18:21:48.075Z,4.00
2022-07-27T18:24:15.224Z,4.20
2022-07-27T18:26:42.197Z,4.30
2022-07-27T18:29:09.966Z,4.30
2022-07-27T18:31:37.278Z,4.10
2022-07-27T18:34:06.829Z,4.50
2022-07-27T18:36:38.898Z,4.10
2022-07-27T18:39:06.674Z,4.90
2022-07-27T18:41:33.552Z,4.50
2022-07-27T18:44:00.387Z,4.50
2022-07-27T18:46:27.439Z,4.40
2022-07-27T18:48:54.424Z,4.50
2022-07-27T18:51:21.365Z,4.40
2022-07-27T18:53:49.010Z,5.30
2022-07-27T18:56:16.031Z,4.80
2022-07-27T18:58:42.900Z,5.30
2022-07-27T19:01:10.504Z,5.30
2022-07-27T19:03:37.464Z,5.00
2022-07-27T19:06:08.510Z,4.60
2022-07-27T19:08:37.438Z,4.40
2022-07-27T19:11:04.263Z,4.00
2022-07-27T19:13:31.083Z,3.70
2022-07-27T19:15:59.578Z,3.20
2022-07-27T19:18:26.504Z,3.30
2022-07-27T19:20:53.588Z,3.30
2022-07-27T19:23:20.473Z,3.30
2022-07-27T19:25:47.553Z,3.00
2022-07-27T19:28:15.319Z,3.50
2022-07-27T19:30:42.292Z,2.70
2022-07-27T19:33:09.213Z,3.10
2022-07-27T19:35:36.220Z,2.70
2022-07-27T19:38:03.178Z,3.00
2022-07-27T19:40:46.220Z,2.60
2022-07-27T19:43:13.788Z,2.80
2022-07-27T19:45:40.795Z,2.80
2022-07-27T19:48:08.393Z,2.80
2022-07-27T19:50:35.212Z,2.90
2022-07-27T19:53:02.106Z,2.90
2022-07-27T19:55:28.921Z,3.20
2022-07-27T19:57:55.739Z,3.10
2022-07-27T20:00:22.543Z,2.60
2022-07-27T20:02:49.488Z,2.50
2022-07-27T20:05:16.347Z,2.70
2022-07-27T20:07:43.542Z,2.90
2022-07-27T20:10:10.550Z,2.20
2022-07-27T20:12:37.326Z,2.80
2022-07-27T20:15:04.902Z,2.60
2022-07-27T20:17:36.840Z,2.70
2022-07-27T20:20:07.503Z,2.20
2022-07-27T20:22:34.411Z,2.20
2022-07-27T20:25:02.276Z,2.30
2022-07-27T20:27:29.084Z,2.50
2022-07-27T20:29:55.818Z,2.30
2022-07-27T20:32:22.594Z,2.40
2022-07-27T20:34:49.346Z,2.30
2022-07-27T20:37:16.287Z,2.40
2022-07-27T20:39:43.082Z,2.50
2022-07-27T20:42:11.030Z,2.80
2022-07-27T20:44:37.886Z,1.90
2022-07-27T20:47:06.293Z,2.00
2022-07-27T20:49:34.369Z,2.20
2022-07-27T20:52:01.838Z,2.20
2022-07-27T20:54:29.504Z,2.00
2022-07-27T20:56:56.975Z,2.40
2022-07-27T20:59:24.225Z,2.30
2022-07-27T21:01:51.279Z,2.30
2022-07-27T21:04:19.205Z,2.20
2022-07-27T21:06:46.141Z,2.30
2022-07-27T21:09:13.257Z,2.10
2022-07-27T21:11:40.298Z,2.00
2022-07-27T21:14:07.844Z,2.30
2022-07-27T21:16:34.656Z,2.00
2022-07-27T21:19:01.728Z,1.80
2022-07-27T21:21:28.666Z,2.10
2022-07-27T21:24:14.151Z,2.30
2022-07-27T21:26:50.414Z,2.20
2022-07-27T21:29:17.360Z,2.20
2022-07-27T21:31:46.713Z,2.10
2022-07-27T21:34:16.356Z,2.50
2022-07-27T21:36:43.413Z,2.10
2022-07-27T21:39:10.242Z,2.20
2022-07-27T21:41:38.775Z,2.70
2022-07-27T21:44:05.642Z,2.20
2022-07-27T21:46:38.208Z,2.60
2022-07-27T21:49:05.042Z,3.30
2022-07-27T21:51:31.867Z,2.40
2022-07-27T21:53:58.701Z,2.80
2022-07-27T21:56:25.461Z,3.00
2022-07-27T21:58:52.244Z,2.40
2022-07-27T22:01:19.121Z,3.20
2022-07-27T22:06:42.713Z,3.00
2022-07-27T22:09:09.572Z,3.40
2022-07-27T22:11:36.357Z,4.30
2022-07-27T22:14:03.114Z,3.80
2022-07-27T22:16:30.108Z,4.20
2022-07-27T22:18:57.300Z,4.00
2022-07-27T22:21:24.084Z,4.40
2022-07-27T22:23:50.910Z,5.20
2022-07-27T22:26:17.996Z,5.00
2022-07-27T22:28:44.844Z,5.50
2022-07-27T22:31:21.980Z,5.60
2022-07-27T22:33:50.352Z,5.30
2022-07-27T22:36:17.142Z,5.00
2022-07-27T22:38:43.897Z,5.60
2022-07-27T22:41:10.651Z,5.60
2022-07-27T22:43:37.445Z,5.20
2022-07-27T22:46:04.930Z,4.80
2022-07-27T22:48:31.905Z,4.70
2022-07-27T22:50:58.651Z,4.50
2022-07-27T22:53:25.423Z,4.50
2022-07-27T22:55:52.298Z,4.40
2022-07-27T22:58:21.827Z,5.20
2022-07-27T23:00:59.241Z,4.30
2022-07-27T23:03:26.467Z,4.10
2022-07-27T23:05:53.583Z,4.80
2022-07-27T23:08:20.333Z,4.00
2022-07-27T23:10:47.262Z,3.90
2022-07-27T23:13:18.490Z,5.90
2022-07-27T23:15:45.604Z,4.50
2022-07-27T23:18:25.931Z,3.70
2022-07-27T23:20:55.682Z,4.70
2022-07-27T23:23:22.476Z,4.30
2022-07-27T23:25:53.018Z,4.00
2022-07-27T23:28:22.117Z,3.80
2022-07-27T23:30:51.878Z,4.20
2022-07-27T23:33:18.675Z,4.50
2022-07-27T23:35:45.444Z,4.30
2022-07-27T23:38:14.861Z,4.10
2022-07-27T23:40:41.623Z,4.40
2022-07-27T23:43:08.532Z,4.40
2022-07-27T23:45:35.411Z,4.30
2022-07-27T23:48:02.843Z,4.80
2022-07-27T23:50:29.614Z,4.00
2022-07-27T23:52:56.388Z,3.50
2022-07-27T23:55:23.207Z,4.80
2022-07-27T23:57:49.981Z,4.70
